Local Weather Observations
KPOV - Ravena/Portage, Ohio, USA
Distance from station: W 14mi, 23km
Updated: Sat, Sep-25-2021 2:15am EDT
Clear
Clear
 Wind from calm
Wind: Calm
Temperature: 55°F , 13°C
Dew Point: 45°F , 7°C
Humidity: 67%
Barometer: 30.02 inHg , 1016.6 hPa
Clouds: Clear
Visibility: 10 miles , 16 km
2021/09/25 06:15 KPOV 250615Z AUTO 00000KT 10SM CLR 13/07 A3002 RMK AO2 T01250067 PWINO
KYNG - Youngstown, Ohio, USA
Distance from station: ENE 16mi, 27km
Updated: Sat, Sep-25-2021 1:51am EDT
Few Clouds
Few Clouds
 Wind from S
Wind: S 6 mph , 9 km/h
Temperature: 55°F , 13°C
Dew Point: 45°F , 7°C
Humidity: 67%
Barometer: 30.04 inHg , 1017.3 hPa
Clouds: Few Clouds
Visibility: 10 miles , 16 km
Cloud details: Few Clouds 25000 ft
2021/09/25 05:51 KYNG 250551Z 18005KT 10SM FEW250 13/07 A3004 RMK AO2 SLP170 T01280072 10167 20128 58009
 
KAKR - Akron (fulton), Ohio, USA
Distance from station: WSW 28mi, 45km
Updated: Sat, Sep-25-2021 1:54am EDT
Clear
Clear
 Wind from SSW
Wind: SSW 10 mph , 17 km/h
Temperature: 61°F , 16°C
Dew Point: 46°F , 8°C
Humidity: 59%
Barometer: 30.02 inHg , 1016.6 hPa
Clouds: Clear
Visibility: 10 miles , 16 km
2021/09/25 05:54 KAKR 250554Z AUTO 20009KT 10SM CLR 16/08 A3002 RMK AO2 SLP161 T01560078 10178 20150 57012
KUCP - New Castle Muni, Pennsylvania, USA
Distance from station: ESE 31mi, 50km
Updated: Sat, Sep-25-2021 1:56am EDT
Clear
Clear
 Wind from varies
Wind: varies 3 mph , 6 km/h
Temperature: 54°F , 12°C
Dew Point: 46°F , 8°C
Humidity: 77%
Barometer: 30.06 inHg , 1017.9 hPa
Clouds: Clear
Visibility: 10 miles , 16 km
2021/09/25 05:56 KUCP 250556Z AUTO VRB03KT 10SM CLR 12/08 A3006 RMK AO2 SLP192 T01170078 10167 20117 58009
 
KCAK - Akron, Ohio, USA
Distance from station: SW 31mi, 51km
Updated: Sat, Sep-25-2021 1:51am EDT
Few Clouds
Few Clouds
 Wind from SSW
Wind: SSW 9 mph , 15 km/h
Temperature: 57°F , 14°C
Dew Point: 46°F , 8°C
Humidity: 67%
Barometer: 30.03 inHg , 1016.9 hPa
Clouds: Few Clouds
Visibility: 10 miles , 16 km
Cloud details: Few Clouds 25000 ft
2021/09/25 05:51 KCAK 250551Z 20008KT 10SM FEW250 14/08 A3003 RMK AO2 SLP166 T01390083 10167 20139 58012